Time;durP1;ratioP1;P1;durP2;ratioP2;P2;SDS_P1;SDS_P2;PMS_P1;PMS_P2;Temp;Humidity;BMP_temperature;BMP_pressure;BME280_temperature;BME280_humidity;BME280_pressure;Samples;Min_cycle;Max_cycle;Signal;HPM_P1;HPM_P2
2023/04/11 02:58:42;;;;;;;;;;;10.40;99.90;;;;;;5030292;22;20151;-82
2023/04/11 03:01:10;;;;;;;1.48;0.88;;;10.40;99.90;;;;;;5009102;28;19916;-83
2023/04/11 03:03:37;;;;;;;3.05;0.90;;;10.30;99.90;;;;;;5023356;28;20128;-83
2023/04/11 03:06:03;;;;;;;2.85;0.85;;;10.30;99.90;;;;;;5015402;28;20030;-80
2023/04/11 03:08:29;;;;;;;2.25;0.90;;;10.30;99.90;;;;;;5015492;28;20021;-83
2023/04/11 03:10:54;;;;;;;2.78;0.98;;;10.30;99.90;;;;;;5024904;28;20032;-83
2023/04/11 03:13:20;;;;;;;3.63;0.80;;;10.50;99.90;;;;;;5020012;28;20021;-82
2023/04/11 03:15:46;;;;;;;5.10;1.05;;;10.20;99.90;;;;;;5021947;28;20026;-81
2023/04/11 03:18:11;;;;;;;1.58;0.90;;;10.20;99.90;;;;;;5018352;28;20034;-80
2023/04/11 03:20:37;;;;;;;4.30;1.30;;;10.20;99.90;;;;;;5039291;28;20501;-79
2023/04/11 03:23:03;;;;;;;2.58;0.90;;;10.10;99.90;;;;;;5021174;28;20053;-84
2023/04/11 03:25:28;;;;;;;2.80;0.70;;;10.10;99.90;;;;;;5023840;28;20030;-82
2023/04/11 03:27:54;;;;;;;2.10;0.90;;;10.10;99.90;;;;;;5023156;28;20029;-85
2023/04/11 03:30:19;;;;;;;1.83;0.77;;;10.10;99.90;;;;;;5024682;28;20041;-83
2023/04/11 03:32:45;;;;;;;4.38;1.08;;;10.10;99.90;;;;;;5023174;28;20029;-83
2023/04/11 03:35:11;;;;;;;4.07;1.00;;;10.10;99.90;;;;;;5016950;28;20093;-83
2023/04/11 03:37:36;;;;;;;4.18;1.05;;;9.90;99.90;;;;;;5017466;28;20052;-83
2023/04/11 03:40:03;;;;;;;5.68;0.82;;;10.00;99.90;;;;;;5023917;28;20037;-80
2023/04/11 03:42:29;;;;;;;3.70;0.88;;;9.90;99.90;;;;;;5038358;28;20028;-81
2023/04/11 03:44:54;;;;;;;2.90;0.70;;;10.00;99.90;;;;;;5011135;28;20026;-82
2023/04/11 03:47:20;;;;;;;3.55;1.20;;;9.90;99.90;;;;;;5022527;28;20461;-83
2023/04/11 03:49:45;;;;;;;6.07;1.38;;;10.00;99.90;;;;;;5021279;28;20071;-82
2023/04/11 03:52:13;;;;;;;2.80;0.98;;;9.90;99.90;;;;;;5019695;28;20409;-81
2023/04/11 03:54:39;;;;;;;1.88;0.95;;;10.00;99.90;;;;;;5014930;28;20113;-83
2023/04/11 03:57:05;;;;;;;5.13;1.20;;;9.90;99.90;;;;;;5037770;28;20053;-82
2023/04/11 03:59:30;;;;;;;5.63;1.30;;;9.90;99.90;;;;;;5018715;28;20030;-80
2023/04/11 04:01:56;;;;;;;2.13;1.02;;;10.00;99.90;;;;;;5025775;28;20039;-83
2023/04/11 04:04:21;;;;;;;4.53;1.25;;;10.20;99.90;;;;;;5020771;28;20042;-82
2023/04/11 04:06:47;;;;;;;4.65;1.20;;;9.90;99.90;;;;;;5020397;28;20022;-83
2023/04/11 04:09:13;;;;;;;4.53;1.17;;;9.90;99.90;;;;;;5015456;28;20029;-84
2023/04/11 04:11:38;;;;;;;5.07;1.40;;;10.00;99.90;;;;;;5019245;28;20057;-82
2023/04/11 04:14:04;;;;;;;4.28;1.30;;;10.00;99.90;;;;;;5020901;28;20022;-82
2023/04/11 04:16:29;;;;;;;5.45;1.40;;;10.00;99.90;;;;;;5016641;28;20025;-81
2023/04/11 04:18:55;;;;;;;5.55;1.40;;;9.90;99.90;;;;;;5018175;28;20075;-85
2023/04/11 04:21:20;;;;;;;6.32;1.25;;;10.20;99.90;;;;;;5020641;28;20033;-83
2023/04/11 04:23:46;;;;;;;4.55;1.17;;;9.80;99.90;;;;;;5016509;28;20025;-82
2023/04/11 04:26:15;;;;;;;5.80;1.38;;;10.00;99.90;;;;;;5023630;28;20037;-82
2023/04/11 04:28:44;;;;;;;4.40;1.50;;;10.30;99.90;;;;;;5019630;28;20036;-83
2023/04/11 04:31:11;;;;;;;4.45;1.20;;;9.90;99.90;;;;;;5019946;28;20033;-83
2023/04/11 04:33:37;;;;;;;3.00;1.17;;;9.90;99.90;;;;;;5020237;28;20029;-82
2023/04/11 04:36:03;;;;;;;5.10;1.42;;;10.20;99.90;;;;;;5021408;28;20029;-85
2023/04/11 04:38:30;;;;;;;8.00;1.70;;;9.80;99.90;;;;;;5020391;28;20101;-84
2023/04/11 04:40:55;;;;;;;5.13;1.52;;;10.90;99.90;;;;;;5022893;28;20029;-83
2023/04/11 04:43:23;;;;;;;4.70;1.42;;;10.00;99.90;;;;;;5011781;28;20135;-85
2023/04/11 04:45:49;;;;;;;8.73;1.73;;;10.50;99.90;;;;;;5015620;28;20080;-84
2023/04/11 04:48:16;;;;;;;6.13;1.45;;;9.90;99.90;;;;;;5020124;28;20033;-85
2023/04/11 04:50:42;;;;;;;6.82;1.70;;;9.70;99.90;;;;;;5019890;28;20033;-85
2023/04/11 04:53:08;;;;;;;6.30;1.70;;;10.90;99.90;;;;;;5019953;28;20025;-85
2023/04/11 04:55:34;;;;;;;4.55;1.70;;;9.90;99.90;;;;;;5021817;28;20028;-85
2023/04/11 04:58:00;;;;;;;7.07;1.60;;;9.80;99.90;;;;;;5016945;28;20025;-84
2023/04/11 05:00:25;;;;;;;6.53;1.60;;;10.60;99.90;;;;;;5013803;28;20030;-84
2023/04/11 05:02:53;;;;;;;5.35;1.70;;;9.60;99.90;;;;;;5018730;28;20044;-84
2023/04/11 05:05:19;;;;;;;5.10;1.63;;;9.60;99.90;;;;;;5045786;28;20021;-85
2023/04/11 05:07:44;;;;;;;7.57;1.60;;;9.60;99.90;;;;;;5051625;28;20047;-81
2023/04/11 05:10:10;;;;;;;14.15;2.10;;;11.00;99.90;;;;;;5024503;28;20036;-83
2023/04/11 05:12:36;;;;;;;7.15;1.50;;;10.50;99.90;;;;;;5023706;28;20022;-83
2023/04/11 05:15:01;;;;;;;8.02;1.83;;;9.60;99.90;;;;;;5021987;28;20029;-84
2023/04/11 05:17:28;;;;;;;9.30;1.98;;;9.60;99.90;;;;;;5022767;28;20056;-84
2023/04/11 05:19:54;;;;;;;7.63;1.80;;;9.50;99.90;;;;;;5019099;28;20508;-86
2023/04/11 05:22:20;;;;;;;8.23;1.92;;;9.50;99.90;;;;;;5022126;28;20064;-85
2023/04/11 05:24:45;;;;;;;5.95;1.73;;;9.50;99.90;;;;;;5020901;28;20029;-84
2023/04/11 05:27:12;;;;;;;5.68;1.48;;;9.50;99.90;;;;;;5024166;28;20029;-86
2023/04/11 05:29:38;;;;;;;8.00;1.60;;;9.50;99.90;;;;;;5019495;28;20048;-86
2023/04/11 05:32:03;;;;;;;8.07;1.58;;;9.50;99.90;;;;;;5035828;28;20029;-85
2023/04/11 05:34:31;;;;;;;12.30;1.88;;;9.50;99.90;;;;;;5015871;28;20033;-87
2023/04/11 05:36:57;;;;;;;9.95;2.38;;;9.50;99.90;;;;;;5013878;28;20093;-83
2023/04/11 05:39:22;;;;;;;6.55;1.80;;;9.40;99.90;;;;;;5028213;28;20448;-84
2023/04/11 05:41:48;;;;;;;10.00;2.03;;;9.50;99.90;;;;;;5015643;28;20064;-84
2023/04/11 05:44:14;;;;;;;10.20;1.67;;;9.50;99.90;;;;;;5013439;28;20044;-83
2023/04/11 05:46:39;;;;;;;10.90;1.73;;;9.50;99.90;;;;;;5031609;28;20033;-85
2023/04/11 05:49:05;;;;;;;13.45;1.90;;;10.40;99.90;;;;;;5018513;28;20034;-85
2023/04/11 05:51:30;;;;;;;12.38;2.22;;;9.50;99.90;;;;;;5020598;28;20069;-83
2023/04/11 05:53:56;;;;;;;12.40;1.92;;;9.50;99.90;;;;;;5027540;28;20021;-82
2023/04/11 05:56:22;;;;;;;10.77;2.10;;;9.80;99.90;;;;;;5021306;28;20029;-85
2023/04/11 05:58:47;;;;;;;11.18;2.17;;;9.50;99.90;;;;;;5008576;28;20120;-83
2023/04/11 06:01:17;;;;;;;10.68;2.00;;;9.60;99.90;;;;;;5018249;28;20079;-86
2023/04/11 06:03:44;;;;;;;7.38;1.40;;;9.60;99.90;;;;;;5021441;28;20117;-84
2023/04/11 06:06:10;;;;;;;12.70;2.33;;;10.90;99.90;;;;;;5035671;28;20022;-84
2023/04/11 06:08:36;;;;;;;7.88;1.70;;;9.90;99.90;;;;;;5017128;28;20075;-84
2023/04/11 06:11:01;;;;;;;10.70;2.10;;;9.70;99.90;;;;;;5015004;28;20513;-83
2023/04/11 06:13:27;;;;;;;7.85;1.85;;;9.90;99.90;;;;;;5014517;28;20030;-83
2023/04/11 06:15:52;;;;;;;8.32;1.73;;;10.60;99.90;;;;;;5020823;28;20623;-84
2023/04/11 06:18:18;;;;;;;9.43;1.73;;;10.90;99.90;;;;;;5017109;28;20036;-84
2023/04/11 06:20:45;;;;;;;8.48;1.65;;;10.20;99.90;;;;;;5022932;28;20427;-84
2023/04/11 06:23:10;;;;;;;7.72;1.38;;;10.10;99.90;;;;;;5012035;28;20461;-86
2023/04/11 06:25:36;;;;;;;3.95;1.17;;;11.60;99.90;;;;;;5012441;28;20045;-85
2023/04/11 06:28:02;;;;;;;7.32;2.10;;;10.10;99.90;;;;;;5017776;28;20444;-83
2023/04/11 06:30:27;;;;;;;7.55;1.63;;;10.10;99.90;;;;;;5019131;28;20040;-85
2023/04/11 06:32:53;;;;;;;6.00;1.52;;;10.10;99.90;;;;;;5020860;28;20029;-86
2023/04/11 06:35:23;;;;;;;11.80;2.00;;;;;;;;;;5022966;28;20051;-85
2023/04/11 06:37:49;;;;;;;7.07;1.63;;;;;;;;;;5019180;28;20026;-87
2023/04/11 06:40:16;;;;;;;10.80;2.00;;;10.20;99.90;;;;;;5043480;28;20033;-85
2023/04/11 06:42:41;;;;;;;8.90;1.80;;;10.30;99.90;;;;;;5023805;28;20021;-85
2023/04/11 06:45:07;;;;;;;7.90;1.70;;;10.40;99.90;;;;;;5045970;28;20120;-85
2023/04/11 06:47:33;;;;;;;9.40;2.42;;;10.50;99.90;;;;;;5032588;28;20022;-86
2023/04/11 06:49:59;;;;;;;9.75;1.70;;;;;;;;;;5043230;28;20160;-86
2023/04/11 06:52:25;;;;;;;7.03;1.95;;;10.60;99.90;;;;;;5021756;28;20044;-85
2023/04/11 06:54:50;;;;;;;9.63;2.20;;;11.50;99.90;;;;;;5024649;28;20033;-86
2023/04/11 06:57:16;;;;;;;10.85;1.75;;;10.40;99.90;;;;;;5036090;28;20053;-83
2023/04/11 06:59:42;;;;;;;12.68;2.40;;;10.50;99.90;;;;;;5019463;28;20065;-84
2023/04/11 07:02:08;;;;;;;9.68;2.47;;;11.60;99.90;;;;;;5020060;28;20033;-86
2023/04/11 07:04:33;;;;;;;10.68;1.95;;;10.90;99.90;;;;;;5024107;28;20056;-84
2023/04/11 07:06:59;;;;;;;9.68;2.10;;;;;;;;;;5017866;28;20518;-84
2023/04/11 07:09:31;;;;;;;14.10;2.03;;;11.00;99.90;;;;;;5019332;28;20037;-84
2023/04/11 07:11:57;;;;;;;11.45;2.40;;;11.00;99.90;;;;;;5024015;28;20029;-87
2023/04/11 07:14:23;;;;;;;8.63;2.10;;;11.00;99.90;;;;;;5027940;28;20116;-87
2023/04/11 07:16:49;;;;;;;9.80;1.95;;;11.00;99.90;;;;;;5040400;28;20021;-86
2023/04/11 07:19:15;;;;;;;11.68;2.70;;;;;;;;;;5038591;28;20029;-88
2023/04/11 07:21:40;;;;;;;10.45;1.80;;;11.10;99.90;;;;;;5037694;28;20056;-87
2023/04/11 07:24:06;;;;;;;12.38;2.50;;;11.10;99.90;;;;;;5033786;28;20033;-87
2023/04/11 07:26:34;;;;;;;12.70;2.30;;;11.10;99.90;;;;;;5050719;28;20033;-89
2023/04/11 07:29:00;;;;;;;12.63;2.50;;;11.10;99.90;;;;;;5030736;28;20081;-87
2023/04/11 07:31:26;;;;;;;10.10;2.72;;;11.00;99.90;;;;;;5029806;28;20037;-88
2023/04/11 07:33:51;;;;;;;13.70;2.30;;;11.80;99.90;;;;;;5046529;28;20045;-87
2023/04/11 07:36:17;;;;;;;8.38;2.10;;;11.00;99.90;;;;;;5029238;28;20048;-88
2023/04/11 07:38:43;;;;;;;9.27;1.60;;;11.00;99.90;;;;;;5036431;28;20378;-88
2023/04/11 07:41:09;;;;;;;17.55;2.83;;;11.70;99.90;;;;;;5031172;28;20041;-85
2023/04/11 07:43:35;;;;;;;11.77;2.40;;;11.40;99.90;;;;;;5032844;28;20079;-87
2023/04/11 07:46:00;;;;;;;9.50;2.15;;;11.40;99.90;;;;;;5030893;28;20030;-87
2023/04/11 07:48:27;;;;;;;10.35;2.30;;;11.30;99.90;;;;;;5029242;28;20044;-87
2023/04/11 07:50:53;;;;;;;9.50;2.30;;;11.40;99.90;;;;;;5032634;28;20052;-87
2023/04/11 07:53:21;;;;;;;13.95;2.53;;;12.80;99.90;;;;;;5032765;28;20174;-87
2023/04/11 07:55:46;;;;;;;14.50;2.45;;;12.00;99.90;;;;;;5054062;28;20014;-85
2023/04/11 07:58:12;;;;;;;11.40;2.10;;;11.70;99.90;;;;;;5036447;28;20088;-87
2023/04/11 08:00:38;;;;;;;8.15;1.80;;;;;;;;;;5013668;28;20672;-87
2023/04/11 08:03:05;;;;;;;11.50;2.42;;;11.60;99.90;;;;;;5044691;28;20064;-88
2023/04/11 08:05:32;;;;;;;11.20;2.28;;;11.50;99.90;;;;;;5030845;28;20022;-85
2023/04/11 08:07:58;;;;;;;10.57;2.45;;;11.80;99.90;;;;;;5029132;28;20098;-85
2023/04/11 08:10:24;;;;;;;10.40;1.80;;;11.70;99.90;;;;;;5011047;28;20038;-87
2023/04/11 08:12:50;;;;;;;13.52;1.95;;;11.70;99.90;;;;;;5019396;28;20025;-86
2023/04/11 08:15:16;;;;;;;10.18;2.03;;;11.70;99.90;;;;;;5030119;28;20100;-87
2023/04/11 08:17:42;;;;;;;8.30;1.80;;;11.70;99.90;;;;;;5046880;28;20045;-89
2023/04/11 08:20:12;;;;;;;10.45;2.05;;;11.50;99.90;;;;;;5032396;28;20022;-87
2023/04/11 08:22:39;;;;;;;10.55;1.83;;;11.50;99.90;;;;;;5026442;28;20113;-89
2023/04/11 08:25:07;;;;;;;13.80;2.47;;;11.80;99.90;;;;;;5031689;28;20033;-89
2023/04/11 08:27:32;;;;;;;8.40;2.28;;;11.80;99.90;;;;;;5038750;28;20411;-87
2023/04/11 08:29:58;;;;;;;8.70;1.75;;;12.10;99.90;;;;;;5026161;28;20089;-87
2023/04/11 08:32:24;;;;;;;11.30;1.95;;;12.30;99.90;;;;;;5025416;28;20095;-88
2023/04/11 08:34:49;;;;;;;8.40;1.85;;;12.50;99.90;;;;;;5031257;28;20115;-86
2023/04/11 08:37:15;;;;;;;13.70;2.33;;;12.50;99.90;;;;;;5033706;28;20022;-87
2023/04/11 08:39:41;;;;;;;12.23;1.73;;;12.50;99.90;;;;;;5035182;28;20078;-84
2023/04/11 08:42:06;;;;;;;12.93;2.10;;;12.80;99.90;;;;;;5031533;28;20033;-85
2023/04/11 08:44:32;;;;;;;8.88;1.55;;;12.50;99.90;;;;;;5031766;28;20041;-83
2023/04/11 08:46:58;;;;;;;10.60;1.65;;;12.70;99.90;;;;;;5031727;28;20049;-83
2023/04/11 08:49:24;;;;;;;8.55;2.10;;;12.60;99.90;;;;;;5031511;28;20049;-87
2023/04/11 08:51:53;;;;;;;10.77;2.05;;;12.60;99.90;;;;;;5048567;28;20029;-87
2023/04/11 08:54:18;;;;;;;7.78;1.95;;;12.60;99.90;;;;;;5027163;28;20045;-87
2023/04/11 08:56:44;;;;;;;9.65;2.15;;;12.60;99.90;;;;;;5028366;28;20026;-87
2023/04/11 08:59:10;;;;;;;14.55;2.08;;;12.50;99.90;;;;;;5026754;28;20133;-86
2023/04/11 09:01:36;;;;;;;14.18;3.05;;;;;;;;;;5026109;28;20192;-87
2023/04/11 09:04:04;;;;;;;10.50;2.10;;;12.30;99.90;;;;;;5049093;28;20036;-86
2023/04/11 09:22:12;;;;;;;5.70;1.30;;;12.30;99.90;;;;;;5992947;22;20049;-80
2023/04/11 09:24:38;;;;;;;8.48;1.60;;;;;;;;;;5034907;28;20033;-80
2023/04/11 09:27:30;;;;;;;14.50;1.77;;;12.40;99.90;;;;;;5037288;28;20043;-83
2023/04/11 09:30:06;;;;;;;14.07;1.88;;;12.50;99.90;;;;;;5021798;28;20034;-81
2023/04/11 09:32:35;;;;;;;8.88;2.20;;;12.80;99.90;;;;;;5028859;28;20045;-82
2023/04/11 09:35:33;;;;;;;5.95;1.80;;;13.10;99.90;;;;;;5032419;28;20014;-80
2023/04/11 09:38:29;;;;;;;11.30;1.88;;;13.10;99.90;;;;;;5034930;28;20026;-81
2023/04/11 09:41:00;;;;;;;10.70;1.90;;;;;;;;;;5038300;28;20121;-80
2023/04/11 09:57:12;;;;;;;9.60;2.15;;;;;;;;;;5008909;28;20018;-81
2023/04/11 10:03:22;;;;;;;8.43;1.60;;;;;;;;;;4942967;29;20042;-82
2023/04/11 10:06:37;;;;;;;9.60;2.00;;;13.20;99.90;;;;;;4940316;29;20028;-81
2023/04/11 10:09:16;;;;;;;7.47;1.67;;;13.20;99.90;;;;;;4943140;29;20044;-80
2023/04/11 10:11:44;;;;;;;9.13;1.52;;;13.00;99.90;;;;;;4940539;29;20023;-81
2023/04/11 10:14:32;;;;;;;7.97;1.67;;;;;;;;;;4972120;28;20046;-82
2023/04/11 10:17:20;;;;;;;5.10;1.42;;;12.90;99.90;;;;;;4997385;28;20076;-80
2023/04/11 10:19:49;;;;;;;6.13;1.33;;;12.80;99.90;;;;;;4975288;28;20049;-81
2023/04/11 10:22:41;;;;;;;9.57;1.77;;;12.60;99.90;;;;;;4978402;28;20089;-80
2023/04/11 10:25:19;;;;;;;11.10;1.90;;;12.60;99.90;;;;;;4989631;28;20033;-80
2023/04/11 10:27:47;;;;;;;7.25;1.40;;;13.00;99.90;;;;;;4985988;28;20386;-80
2023/04/11 10:30:13;;;;;;;10.02;1.58;;;13.20;99.90;;;;;;4976625;28;20117;-79
2023/04/11 10:32:40;;;;;;;7.32;1.83;;;;;;;;;;4997647;28;20034;-80
2023/04/11 10:35:15;;;;;;;6.78;1.50;;;13.20;99.90;;;;;;4978344;28;20065;-79
2023/04/11 10:37:47;;;;;;;6.72;1.80;;;;;;;;;;4993670;28;20053;-80
2023/04/11 10:40:13;;;;;;;7.50;2.05;;;12.90;99.90;;;;;;4991508;28;20020;-81
2023/04/11 10:42:47;;;;;;;10.35;1.85;;;12.80;99.90;;;;;;4975288;28;20097;-80
2023/04/11 10:45:39;;;;;;;5.57;1.73;;;12.80;99.90;;;;;;4999854;28;20360;-81
2023/04/11 10:48:06;;;;;;;5.30;1.20;;;;;;;;;;4984184;28;20026;-80
2023/04/11 10:50:39;;;;;;;8.50;1.45;;;;;;;;;;4993740;28;20046;-80
2023/04/11 10:53:13;;;;;;;7.82;1.92;;;12.70;99.90;;;;;;4987696;28;20046;-81
2023/04/11 10:55:50;;;;;;;6.75;1.80;;;12.80;99.90;;;;;;4978829;28;20027;-81
2023/04/11 10:58:21;;;;;;;7.03;1.40;;;12.90;99.90;;;;;;5005571;23;20038;-81
2023/04/11 11:00:54;;;;;;;8.18;1.40;;;;;;;;;;5007434;28;20034;-80
2023/04/11 11:03:35;;;;;;;6.18;1.73;;;12.80;99.90;;;;;;5006662;28;20026;-81
2023/04/11 11:06:01;;;;;;;;;;;12.90;99.90;;;;;;5009291;28;20037;-79
2023/04/11 11:08:56;;;;;;;5.82;1.58;;;13.00;99.90;;;;;;4986838;28;19906;-79
2023/04/11 11:11:22;;;;;;;7.75;1.33;;;;;;;;;;4983260;28;20081;-79
2023/04/11 11:17:22;;;;;;;10.60;1.95;;;;;;;;;;4982796;28;20090;-79
2023/04/11 11:19:55;;;;;;;8.70;2.03;;;;;;;;;;4998154;28;20027;-80
2023/04/11 11:22:27;;;;;;;6.55;1.75;;;;;;;;;;4988397;28;20035;-79
2023/04/11 11:25:16;;;;;;;7.60;1.60;;;13.10;99.90;;;;;;4982249;28;20387;-80
2023/04/11 11:27:42;;;;;;;5.72;1.50;;;;;;;;;;4988491;28;20050;-79
2023/04/11 11:30:14;;;;;;;8.95;1.50;;;;;;;;;;4980230;28;20073;-79
2023/04/11 11:32:40;;;;;;;9.02;1.83;;;;;;;;;;4996334;28;20111;-79
2023/04/11 11:35:13;;;;;;;10.60;2.78;;;;;;;;;;4979120;28;20103;-79
2023/04/11 11:40:16;;;;;;;8.20;1.80;;;;;;;;;;5797976;22;20045;-79
2023/04/11 11:42:42;;;;;;;6.47;1.70;;;;;;;;;;5027497;28;20041;-80
2023/04/11 11:45:18;;;;;;;5.53;1.52;;;;;;;;;;5029834;28;20041;-79
2023/04/11 11:47:45;;;;;;;9.40;1.75;;;14.10;99.90;;;;;;5013849;28;20098;-80
2023/04/11 11:50:26;;;;;;;7.25;2.05;;;14.20;99.90;;;;;;4984806;28;20394;-80
2023/04/11 11:52:52;;;;;;;7.90;1.80;;;;;;;;;;5011094;28;20033;-80
2023/04/11 11:55:18;;;;;;;4.38;1.50;;;;;;;;;;5029995;28;20030;-80
2023/04/11 11:57:50;;;;;;;7.50;1.67;;;14.70;98.40;;;;;;5033961;28;20032;-79
2023/04/11 12:00:33;;;;;;;5.88;1.30;;;;;;;;;;5039194;28;20029;-79
2023/04/11 12:03:00;;;;;;;9.20;2.33;;;;;;;;;;5002434;28;20027;-81
2023/04/11 12:05:33;;;;;;;7.97;1.30;;;;;;;;;;5014149;28;20018;-80
2023/04/11 12:21:17;;;;;;;7.15;1.52;;;14.80;96.00;;;;;;5177688;22;20057;-80
2023/04/11 12:23:44;;;;;;;7.22;1.58;;;;;;;;;;5040869;28;20036;-81
2023/04/11 12:26:24;;;;;;;;;;;;;;;;;;;;;
2023/04/11 12:29:01;;;;;;;7.28;1.67;;;;;;;;;;5029396;28;20066;-82
2023/04/11 12:31:49;;;;;;;6.63;1.75;;;14.60;95.20;;;;;;5038366;28;20033;-82
2023/04/11 12:46:27;;;;;;;4.88;1.50;;;;;;;;;;5529292;22;19927;-80
2023/04/11 12:49:19;;;;;;;;;;;;;;;;;;;;;
2023/04/11 12:52:19;;;;;;;3.38;1.17;;;15.00;92.60;;;;;;5045459;28;20068;-79
2023/04/11 12:55:45;;;;;;;5.78;1.30;;;;;;;;;;5052300;28;20049;-80
2023/04/11 12:58:18;;;;;;;5.78;1.45;;;;;;;;;;5044146;28;20025;-81
2023/04/11 13:04:22;;;;;;;6.75;2.08;;;;;;;;;;5038046;28;20039;-80
2023/04/11 13:07:18;;;;;;;5.55;1.50;;;14.30;93.00;;;;;;5044898;28;20491;-80
2023/04/11 13:10:51;;;;;;;5.63;1.90;;;14.40;92.20;;;;;;5006659;28;20018;-79
2023/04/11 13:17:11;;;;;;;4.55;1.38;;;14.80;91.30;;;;;;4998868;28;20020;-80
2023/04/11 13:20:35;;;;;;;5.53;1.52;;;15.00;91.20;;;;;;5008817;28;20034;-81
2023/04/11 13:24:06;;;;;;;6.95;1.60;;;15.30;91.30;;;;;;5003075;28;20038;-80
2023/04/11 13:26:38;;;;;;;8.18;1.90;;;15.50;90.50;;;;;;4994293;28;20113;-80
2023/04/11 13:32:26;;;;;;;3.72;1.20;;;16.00;90.50;;;;;;4982738;28;20026;-80
2023/04/11 13:38:41;;;;;;;4.43;1.33;;;15.40;88.70;;;;;;4933592;29;20075;-80
2023/04/11 13:54:12;;;;;;;5.15;1.67;;;;;;;;;;4993538;28;20033;-87
2023/04/11 13:57:05;;;;;;;4.45;1.75;;;16.00;82.90;;;;;;4976317;28;20027;-80
2023/04/11 13:59:48;;;;;;;5.40;1.30;;;15.70;82.00;;;;;;4989137;28;20054;-81
2023/04/11 14:02:35;;;;;;;5.05;1.38;;;13.20;82.20;;;;;;4974844;28;20046;-82
2023/04/11 14:05:16;;;;;;;5.88;1.52;;;15.40;83.90;;;;;;4977648;28;20094;-80
2023/04/11 14:07:56;;;;;;;6.78;1.63;;;;;;;;;;5034169;28;20077;-80
2023/04/11 14:10:32;;;;;;;5.90;1.65;;;15.20;84.80;;;;;;5052874;28;20049;-80
2023/04/11 14:13:31;;;;;;;4.80;1.33;;;15.00;86.00;;;;;;5032978;28;20018;-80
2023/04/11 14:20:24;;;;;;;4.38;1.30;;;14.70;85.80;;;;;;5051555;28;20044;-81
2023/04/11 14:23:37;;;;;;;6.07;1.60;;;14.60;86.30;;;;;;5049848;28;20021;-81
2023/04/11 14:26:49;;;;;;;6.25;1.70;;;15.70;87.00;;;;;;5038601;28;20055;-79
2023/04/11 14:33:05;;;;;;;7.32;1.40;;;14.90;88.90;;;;;;5052023;28;20066;-83
2023/04/11 14:35:35;;;;;;;7.88;2.00;;;14.50;88.30;;;;;;5051500;28;20529;-81
2023/04/11 14:38:03;;;;;;;7.03;1.75;;;14.50;88.80;;;;;;5037090;28;20026;-82
2023/04/11 14:43:15;;;;;;;4.57;1.45;;;14.50;89.30;;;;;;5051113;28;20047;-83
2023/04/11 14:45:41;;;;;;;9.18;2.40;;;;;;;;;;5055263;28;20026;-83
2023/04/11 14:51:29;;;;;;;6.38;2.60;;;14.60;88.90;;;;;;5043930;28;20031;-83
2023/04/11 14:53:58;;;;;;;6.72;1.73;;;;;;;;;;5030851;28;20026;-82
2023/04/11 14:56:25;;;;;;;8.45;1.95;;;14.60;88.40;;;;;;5045585;28;20018;-84
2023/04/11 14:58:51;;;;;;;5.80;1.75;;;;;;;;;;5033534;28;20055;-85
2023/04/11 15:01:18;;;;;;;6.10;1.83;;;14.60;88.90;;;;;;5045868;28;20034;-87
2023/04/11 15:03:45;;;;;;;7.78;1.80;;;;;;;;;;5049752;28;20021;-85
2023/04/11 15:06:11;;;;;;;6.25;1.80;;;;;;;;;;5050132;28;20025;-86
2023/04/11 15:08:37;;;;;;;8.20;1.70;;;14.60;90.10;;;;;;5037182;28;20033;-83
2023/04/11 15:11:03;;;;;;;6.60;1.70;;;14.50;90.30;;;;;;5032915;28;20101;-84
2023/04/11 15:16:23;;;;;;;3.33;1.20;;;14.60;90.00;;;;;;5055416;28;20040;-81
2023/04/11 15:18:50;;;;;;;4.93;1.60;;;14.60;90.50;;;;;;5028688;28;20089;-83
2023/04/11 15:21:31;;;;;;;6.57;1.88;;;14.80;89.40;;;;;;5036413;28;20061;-84
2023/04/11 15:23:57;;;;;;;8.68;1.65;;;14.90;90.30;;;;;;5036176;28;20018;-82
2023/04/11 15:26:24;;;;;;;9.35;2.13;;;;;;;;;;5038887;28;20058;-85
2023/04/11 15:28:50;;;;;;;9.98;2.67;;;;;;;;;;5047358;28;20018;-86
2023/04/11 15:31:38;;;;;;;9.55;2.15;;;14.90;89.00;;;;;;5050368;28;20013;-82
2023/04/11 15:34:05;;;;;;;7.65;1.92;;;14.80;89.90;;;;;;5051343;28;20040;-85
2023/04/11 15:36:30;;;;;;;7.00;1.60;;;14.80;90.00;;;;;;5033757;28;20033;-86
2023/04/11 15:38:57;;;;;;;7.68;1.73;;;;;;;;;;5040578;28;20024;-82
2023/04/11 15:41:22;;;;;;;5.63;1.30;;;14.80;89.90;;;;;;5054623;28;20038;-84
2023/04/11 15:43:48;;;;;;;6.13;1.98;;;14.70;90.10;;;;;;5017926;28;20014;-84
2023/04/11 15:46:15;;;;;;;6.30;1.50;;;14.50;90.20;;;;;;5032133;28;20017;-83
2023/04/11 15:49:00;;;;;;;6.80;1.63;;;14.50;90.50;;;;;;5039915;28;20046;-84
2023/04/11 15:54:52;;;;;;;8.43;2.60;;;14.50;90.60;;;;;;5016066;28;20033;-83
2023/04/11 15:57:22;;;;;;;4.93;1.40;;;14.50;90.90;;;;;;5038010;28;20029;-84
2023/04/11 15:59:48;;;;;;;8.05;1.73;;;;;;;;;;5051125;28;20162;-84
2023/04/11 16:02:14;;;;;;;5.40;1.65;;;;;;;;;;5037971;28;20048;-88
2023/04/11 16:04:41;;;;;;;8.60;1.90;;;14.40;90.90;;;;;;5031115;28;20089;-84
2023/04/11 16:07:22;;;;;;;4.90;1.42;;;14.40;91.30;;;;;;5031090;28;20025;-86
2023/04/11 16:09:56;;;;;;;6.95;1.35;;;14.60;90.90;;;;;;5051754;28;20412;-82
2023/04/11 16:12:24;;;;;;;5.45;1.67;;;14.50;91.20;;;;;;5037143;28;20010;-81
2023/04/11 16:18:12;;;;;;;7.15;2.38;;;;;;;;;;5053856;28;20036;-81
2023/04/11 16:21:15;;;;;;;6.55;1.92;;;14.40;91.00;;;;;;5035473;28;20006;-83
2023/04/11 16:23:41;;;;;;;8.00;2.10;;;15.90;91.50;;;;;;5024024;28;20188;-84
2023/04/11 16:26:08;;;;;;;4.80;1.55;;;14.30;91.80;;;;;;5025836;28;20079;-83
2023/04/11 16:28:36;;;;;;;4.32;1.30;;;17.10;93.40;;;;;;5033195;28;20017;-84
2023/04/11 16:31:13;;;;;;;6.25;1.85;;;14.20;90.70;;;;;;5032669;28;20014;-84
2023/04/11 16:33:42;;;;;;;8.55;1.90;;;;;;;;;;5033907;28;20026;-83
2023/04/11 16:36:10;;;;;;;7.78;2.25;;;14.10;91.10;;;;;;5044172;28;20014;-83
2023/04/11 16:38:36;;;;;;;10.07;2.20;;;14.10;91.60;;;;;;5033240;28;20024;-86
2023/04/11 16:41:02;;;;;;;6.95;1.98;;;;;;;;;;5046972;28;20037;-83
2023/04/11 16:43:28;;;;;;;8.82;1.90;;;;;;;;;;5022856;28;20514;-84
2023/04/11 16:45:54;;;;;;;4.68;1.55;;;14.10;91.70;;;;;;5038235;28;20029;-83
2023/04/11 16:48:20;;;;;;;6.93;1.80;;;14.00;92.10;;;;;;5040156;28;20044;-81
2023/04/11 16:50:55;;;;;;;4.47;1.40;;;13.90;91.90;;;;;;5020565;28;20022;-80
2023/04/11 16:53:20;;;;;;;6.28;1.83;;;13.90;92.50;;;;;;5038099;28;20033;-82
2023/04/11 16:55:47;;;;;;;6.20;1.90;;;14.80;92.90;;;;;;5032738;28;20010;-82
2023/04/11 16:58:13;;;;;;;4.93;1.50;;;13.90;92.80;;;;;;5027837;28;20177;-80
2023/04/11 17:00:39;;;;;;;5.55;2.00;;;;;;;;;;5043315;28;20006;-79
2023/04/11 17:03:05;;;;;;;8.27;2.08;;;13.70;91.50;;;;;;5043700;28;20025;-81
2023/04/11 17:05:33;;;;;;;5.60;1.42;;;13.70;91.20;;;;;;5051391;28;20021;-80
2023/04/11 17:07:59;;;;;;;5.93;1.80;;;13.70;91.70;;;;;;5047170;28;20022;-79
2023/04/11 17:10:25;;;;;;;6.57;2.10;;;13.70;92.70;;;;;;5028156;28;20495;-80
2023/04/11 17:12:52;;;;;;;6.68;1.60;;;13.70;91.60;;;;;;5046551;28;20089;-80
2023/04/11 17:15:18;;;;;;;5.43;1.30;;;13.70;91.10;;;;;;5029564;28;20029;-81
2023/04/11 17:17:44;;;;;;;6.50;1.85;;;13.60;91.20;;;;;;5050633;28;20052;-79
2023/04/11 17:20:11;;;;;;;6.63;1.80;;;11.80;91.00;;;;;;5038324;28;20270;-79
2023/04/11 17:22:40;;;;;;;6.20;1.70;;;;;;;;;;5034730;28;20052;-81
2023/04/11 17:25:06;;;;;;;6.60;1.60;;;;;;;;;;5043506;28;20024;-81
2023/04/11 17:27:32;;;;;;;6.30;1.92;;;13.60;91.40;;;;;;5053229;28;20013;-82
2023/04/11 17:30:01;;;;;;;6.78;2.03;;;13.50;91.70;;;;;;5053256;28;20017;-81
2023/04/11 17:32:30;;;;;;;6.38;1.73;;;;;;;;;;5037590;28;20044;-80
2023/04/11 17:34:56;;;;;;;5.65;1.75;;;13.40;92.00;;;;;;5060254;22;20043;-82
2023/04/11 17:37:27;;;;;;;11.60;2.38;;;13.40;92.40;;;;;;5007928;28;20053;-82
2023/04/11 17:39:53;;;;;;;6.90;1.90;;;13.40;92.90;;;;;;4996613;28;20159;-86
2023/04/11 17:42:19;;;;;;;6.13;1.65;;;12.10;93.10;;;;;;5013083;28;20048;-83
2023/04/11 17:44:45;;;;;;;9.13;2.05;;;13.30;93.80;;;;;;4995708;28;20030;-83
2023/04/11 17:47:11;;;;;;;9.35;2.63;;;;;;;;;;4998278;28;20065;-82
2023/04/11 17:49:44;;;;;;;8.77;3.60;;;13.20;94.10;;;;;;5014337;28;20096;-80
2023/04/11 17:52:15;;;;;;;6.47;2.33;;;13.80;94.60;;;;;;5015200;28;20090;-80
2023/04/11 17:54:41;;;;;;;7.78;2.40;;;;;;;;;;5011934;28;20030;-80
2023/04/11 17:57:16;;;;;;;10.98;3.40;;;13.00;94.30;;;;;;5020876;28;20026;-82
2023/04/11 17:59:44;;;;;;;6.72;2.50;;;13.40;95.40;;;;;;5016423;28;20026;-81
2023/04/11 18:02:11;;;;;;;8.38;1.90;;;14.90;95.50;;;;;;5005397;28;20050;-79
2023/04/11 18:04:37;;;;;;;6.05;2.22;;;13.70;95.50;;;;;;5016887;28;20026;-80
2023/04/11 18:07:05;;;;;;;7.60;2.47;;;12.90;96.50;;;;;;5041678;22;20080;-86
2023/04/11 18:09:31;;;;;;;7.32;2.28;;;12.80;96.10;;;;;;5038908;28;20021;-86
2023/04/11 18:12:00;;;;;;;8.38;2.20;;;12.80;96.20;;;;;;5026993;28;20032;-89
2023/04/11 18:14:26;;;;;;;14.20;4.00;;;12.90;97.10;;;;;;5026728;28;20044;-87
2023/04/11 18:16:52;;;;;;;13.20;3.13;;;12.90;96.20;;;;;;5031748;28;20022;-86